createdAt,value
2019-05-30T00:00:06.793Z,8.20
2019-05-30T00:02:22.945Z,8.19
2019-05-30T00:04:51.432Z,8.18
2019-05-30T00:07:19.901Z,8.15
2019-05-30T00:09:48.402Z,8.13
2019-05-30T00:12:16.868Z,8.11
2019-05-30T00:14:45.354Z,8.09
2019-05-30T00:17:15.576Z,8.08
2019-05-30T00:19:45.096Z,8.06
2019-05-30T00:22:13.574Z,8.02
2019-05-30T00:24:42.116Z,7.99
2019-05-30T00:27:10.584Z,7.96
2019-05-30T00:29:39.062Z,7.93
2019-05-30T00:32:07.889Z,7.88
2019-05-30T00:34:36.418Z,7.85
2019-05-30T00:37:06.085Z,7.79
2019-05-30T00:39:34.760Z,7.75
2019-05-30T00:42:04.269Z,7.71
2019-05-30T00:44:32.778Z,7.66
2019-05-30T00:47:02.428Z,7.62
2019-05-30T00:49:31.053Z,7.55
2019-05-30T00:52:00.545Z,7.51
2019-05-30T00:54:29.217Z,7.48
2019-05-30T00:56:58.581Z,7.44
2019-05-30T00:59:27.153Z,7.41
2019-05-30T01:01:56.612Z,7.40
2019-05-30T01:04:25.407Z,7.36
2019-05-30T01:06:53.851Z,7.34
2019-05-30T01:09:22.371Z,7.31
2019-05-30T01:11:50.838Z,7.31
2019-05-30T01:14:19.307Z,7.30
2019-05-30T01:16:47.846Z,7.28
2019-05-30T01:19:16.303Z,7.27
2019-05-30T01:21:45.933Z,7.26
2019-05-30T01:24:14.441Z,7.25
2019-05-30T01:26:42.910Z,7.24
2019-05-30T01:29:11.386Z,7.21
2019-05-30T01:31:39.881Z,7.19
2019-05-30T01:34:08.361Z,7.16
2019-05-30T01:36:36.844Z,7.15
2019-05-30T01:39:08.202Z,7.11
2019-05-30T01:41:36.838Z,7.10
2019-05-30T01:44:06.094Z,7.08
2019-05-30T01:46:34.766Z,7.06
2019-05-30T01:49:04.387Z,7.04
2019-05-30T01:51:32.952Z,7.02
2019-05-30T01:54:02.541Z,6.99
2019-05-30T01:56:31.193Z,6.96
2019-05-30T01:59:00.642Z,6.92
2019-05-30T02:01:29.252Z,6.87
2019-05-30T02:03:58.988Z,6.83
2019-05-30T02:06:27.669Z,6.78
2019-05-30T02:08:56.204Z,6.75
2019-05-30T02:11:24.686Z,6.70
2019-05-30T02:13:53.138Z,6.67
2019-05-30T02:16:21.655Z,6.63
2019-05-30T02:18:50.187Z,6.59
2019-05-30T02:21:18.636Z,6.57
2019-05-30T02:23:47.569Z,6.58
2019-05-30T02:26:16.056Z,6.56
2019-05-30T02:28:44.514Z,6.51
2019-05-30T02:31:13.035Z,6.51
2019-05-30T02:33:41.558Z,6.53
2019-05-30T02:36:12.342Z,6.54
2019-05-30T02:38:40.340Z,6.55
2019-05-30T02:41:09.997Z,6.56
2019-05-30T02:43:38.995Z,6.59
2019-05-30T02:46:08.471Z,6.61
2019-05-30T02:48:54.745Z,6.63
2019-05-30T02:51:09.766Z,6.65
2019-05-30T02:53:38.150Z,6.66
2019-05-30T02:56:07.922Z,6.67
2019-05-30T02:58:36.887Z,6.70
2019-05-30T03:01:07.065Z,6.74
2019-05-30T03:03:35.584Z,6.76
2019-05-30T03:06:06.254Z,6.77
2019-05-30T03:08:34.753Z,6.80
2019-05-30T03:11:05.071Z,6.83
2019-05-30T03:13:33.548Z,6.86
2019-05-30T03:16:02.876Z,6.90
2019-05-30T03:18:32.264Z,6.93
2019-05-30T03:21:00.735Z,6.96
2019-05-30T03:23:29.243Z,6.99
2019-05-30T03:25:58.004Z,7.00
2019-05-30T03:28:26.802Z,7.03
2019-05-30T03:30:55.429Z,7.05
2019-05-30T03:33:38.079Z,7.09
2019-05-30T03:35:54.083Z,7.13
2019-05-30T03:38:22.591Z,7.20
2019-05-30T03:40:51.252Z,7.26
2019-05-30T03:43:19.784Z,7.35
2019-05-30T03:45:48.309Z,7.44
2019-05-30T03:48:18.647Z,7.55
2019-05-30T03:50:49.235Z,7.69
2019-05-30T03:53:17.731Z,7.82
2019-05-30T03:55:49.372Z,7.99
2019-05-30T03:58:29.912Z,8.24
2019-05-30T04:01:04.000Z,8.67
2019-05-30T04:03:56.580Z,9.12
2019-05-30T04:06:28.224Z,9.61
2019-05-30T04:08:59.933Z,10.15
2019-05-30T04:11:31.569Z,10.64
2019-05-30T04:14:01.597Z,11.05
2019-05-30T04:16:30.129Z,11.38
2019-05-30T04:18:58.599Z,11.71
2019-05-30T04:21:27.096Z,12.00
2019-05-30T04:23:55.601Z,12.29
2019-05-30T04:26:24.089Z,12.59
2019-05-30T04:28:52.972Z,12.78
2019-05-30T04:31:21.504Z,12.87
2019-05-30T04:33:49.954Z,13.03
2019-05-30T04:36:19.156Z,13.15
2019-05-30T04:38:48.108Z,13.16
2019-05-30T04:41:19.234Z,13.17
2019-05-30T04:43:46.804Z,13.19
2019-05-30T04:46:17.266Z,13.29
2019-05-30T04:48:45.515Z,13.43
2019-05-30T04:51:14.552Z,13.43
2019-05-30T04:53:44.220Z,13.44
2019-05-30T04:56:13.147Z,13.45
2019-05-30T04:58:43.219Z,13.45
2019-05-30T05:01:13.096Z,13.44
2019-05-30T05:03:46.372Z,13.43
2019-05-30T05:06:13.615Z,13.41
2019-05-30T05:08:42.191Z,13.42
2019-05-30T05:11:14.087Z,13.43
2019-05-30T05:13:40.900Z,13.45
2019-05-30T05:16:24.364Z,13.47
2019-05-30T05:18:39.664Z,13.48
2019-05-30T05:21:08.151Z,13.50
2019-05-30T05:23:36.663Z,13.52
2019-05-30T05:26:05.151Z,13.54
2019-05-30T05:28:33.642Z,13.56
2019-05-30T05:31:02.671Z,13.60
2019-05-30T05:33:31.118Z,13.62
2019-05-30T05:35:59.619Z,13.64
2019-05-30T05:38:28.525Z,13.67
2019-05-30T05:40:57.071Z,13.72
2019-05-30T05:43:25.562Z,13.77
2019-05-30T05:45:54.071Z,13.83
2019-05-30T05:48:22.685Z,13.89
2019-05-30T05:50:51.236Z,13.99
2019-05-30T05:53:20.854Z,14.08
2019-05-30T05:55:49.440Z,14.17
2019-05-30T05:58:19.118Z,14.27
2019-05-30T06:00:47.711Z,14.37
2019-05-30T06:03:16.831Z,14.48
2019-05-30T06:05:53.094Z,14.58
2019-05-30T06:08:17.405Z,14.67
2019-05-30T06:10:45.964Z,14.78
2019-05-30T06:13:14.445Z,14.86
2019-05-30T06:15:42.970Z,14.95
2019-05-30T06:18:11.540Z,15.06
2019-05-30T06:20:40.011Z,15.18
2019-05-30T06:23:08.536Z,15.28
2019-05-30T06:25:37.001Z,15.39
2019-05-30T06:28:05.474Z,15.50
2019-05-30T06:30:33.995Z,15.59
2019-05-30T06:33:03.576Z,15.65
2019-05-30T06:35:32.091Z,15.72
2019-05-30T06:38:00.551Z,15.78
2019-05-30T06:40:30.852Z,15.87
2019-05-30T06:42:59.359Z,15.95
2019-05-30T06:45:28.398Z,16.02
2019-05-30T06:47:56.993Z,16.11
2019-05-30T06:50:26.741Z,16.22
2019-05-30T06:52:55.471Z,16.30
2019-05-30T06:55:25.071Z,16.38
2019-05-30T06:57:53.637Z,16.49
2019-05-30T07:00:23.681Z,16.60
2019-05-30T07:02:52.310Z,16.67
2019-05-30T07:05:22.515Z,16.75
2019-05-30T07:07:51.390Z,16.83
2019-05-30T07:10:21.234Z,16.90
2019-05-30T07:12:49.735Z,16.99
2019-05-30T07:15:18.397Z,17.08
2019-05-30T07:17:48.404Z,17.18
2019-05-30T07:20:16.990Z,17.29
2019-05-30T07:22:45.548Z,17.39
2019-05-30T07:25:14.888Z,17.49
2019-05-30T07:27:43.474Z,17.60
2019-05-30T07:30:12.733Z,17.69
2019-05-30T07:32:41.197Z,17.81
2019-05-30T07:35:10.829Z,17.89
2019-05-30T07:37:39.302Z,17.98
2019-05-30T07:40:09.042Z,18.08
2019-05-30T07:42:38.618Z,18.17
2019-05-30T07:45:10.270Z,18.24
2019-05-30T07:47:38.766Z,18.33
2019-05-30T07:50:09.017Z,18.44
2019-05-30T07:52:37.468Z,18.53
2019-05-30T07:55:08.445Z,18.60
2019-05-30T07:57:39.727Z,18.65
2019-05-30T08:00:09.604Z,18.70
2019-05-30T08:02:38.120Z,18.73
2019-05-30T08:05:23.023Z,18.76
2019-05-30T08:07:39.115Z,18.82
2019-05-30T08:10:08.449Z,18.87
2019-05-30T08:12:38.260Z,18.95
2019-05-30T08:15:10.134Z,19.04
2019-05-30T08:17:38.612Z,19.12
2019-05-30T08:20:09.186Z,19.20
2019-05-30T08:22:38.350Z,19.29
2019-05-30T08:25:08.889Z,19.39
2019-05-30T08:27:38.517Z,19.49
2019-05-30T08:30:12.809Z,19.55
2019-05-30T08:32:41.347Z,19.61
2019-05-30T08:35:11.556Z,19.67
2019-05-30T08:37:40.197Z,19.73
2019-05-30T08:40:10.030Z,19.80
2019-05-30T08:42:39.909Z,19.87
2019-05-30T08:45:10.134Z,19.93
2019-05-30T08:47:40.423Z,19.98
2019-05-30T08:50:10.592Z,20.05
2019-05-30T08:52:40.666Z,20.11
2019-05-30T08:55:12.214Z,20.18
2019-05-30T08:57:41.131Z,20.24
2019-05-30T09:00:11.639Z,20.31
2019-05-30T09:02:44.979Z,20.39
2019-05-30T09:05:14.657Z,20.47
2019-05-30T09:07:44.498Z,20.56
2019-05-30T09:10:14.935Z,20.66
2019-05-30T09:12:46.091Z,20.76
2019-05-30T09:15:16.879Z,20.80
2019-05-30T09:17:46.786Z,20.86
2019-05-30T09:20:15.776Z,20.92
2019-05-30T09:22:45.512Z,20.98
2019-05-30T09:25:15.596Z,21.04
2019-05-30T09:27:44.811Z,21.08
2019-05-30T09:30:15.385Z,21.17
2019-05-30T09:32:45.148Z,21.25
2019-05-30T09:35:14.375Z,21.30
2019-05-30T09:37:43.972Z,21.37
2019-05-30T09:40:14.610Z,21.42
2019-05-30T09:42:44.714Z,21.49
2019-05-30T09:45:15.339Z,21.56
2019-05-30T09:47:46.651Z,21.63
2019-05-30T09:50:14.424Z,21.74
2019-05-30T09:52:43.526Z,21.82
2019-05-30T09:55:12.736Z,21.90
2019-05-30T09:57:42.630Z,21.97
2019-05-30T10:00:14.392Z,22.07
2019-05-30T10:02:43.622Z,22.14
2019-05-30T10:05:13.195Z,22.22
2019-05-30T10:07:43.571Z,22.27
2019-05-30T10:10:12.322Z,22.33
2019-05-30T10:12:40.806Z,22.39
2019-05-30T10:15:11.004Z,22.43
2019-05-30T10:17:39.528Z,22.47
2019-05-30T10:20:09.315Z,22.53
2019-05-30T10:22:37.837Z,22.56
2019-05-30T10:25:07.459Z,22.61
2019-05-30T10:27:36.003Z,22.67
2019-05-30T10:30:09.108Z,22.75
2019-05-30T10:32:37.668Z,22.86
2019-05-30T10:35:07.175Z,22.94
2019-05-30T10:37:35.684Z,23.02
2019-05-30T10:40:08.729Z,23.08
2019-05-30T10:42:37.407Z,23.11
2019-05-30T10:45:09.796Z,23.12
2019-05-30T10:47:38.258Z,23.14
2019-05-30T10:50:10.176Z,23.17
2019-05-30T10:52:38.770Z,23.20
2019-05-30T10:55:08.481Z,23.22
2019-05-30T10:57:37.092Z,23.28
2019-05-30T11:00:09.947Z,23.32
2019-05-30T11:02:38.131Z,23.39
2019-05-30T11:05:07.634Z,23.49
2019-05-30T11:08:03.434Z,23.63
2019-05-30T11:10:35.266Z,23.74
2019-05-30T11:13:05.978Z,23.76
2019-05-30T11:15:34.814Z,23.72
2019-05-30T11:18:03.279Z,23.67
2019-05-30T11:20:31.790Z,23.65
2019-05-30T11:23:00.448Z,23.65
2019-05-30T11:25:28.923Z,23.63
2019-05-30T11:27:57.460Z,23.67
2019-05-30T11:30:26.407Z,23.70
2019-05-30T11:32:55.184Z,23.80
2019-05-30T11:35:24.072Z,23.86
2019-05-30T11:37:53.065Z,23.90
2019-05-30T11:40:21.779Z,23.93
2019-05-30T11:42:51.210Z,24.05
2019-05-30T11:45:19.979Z,24.15
2019-05-30T11:47:49.586Z,24.26
2019-05-30T11:50:19.817Z,24.35
2019-05-30T11:52:49.744Z,24.45
2019-05-30T11:55:18.458Z,24.58
2019-05-30T11:57:47.013Z,24.69
2019-05-30T12:00:15.842Z,24.74
2019-05-30T12:02:44.372Z,24.76
2019-05-30T12:05:13.433Z,24.78
2019-05-30T12:07:42.097Z,24.83
2019-05-30T12:10:11.338Z,24.89
2019-05-30T12:12:39.850Z,24.93
2019-05-30T12:15:11.042Z,25.03
2019-05-30T12:17:39.513Z,25.14
2019-05-30T12:20:08.574Z,25.27
2019-05-30T12:22:37.064Z,25.39
2019-05-30T12:25:08.653Z,25.48
2019-05-30T12:27:37.245Z,25.54
2019-05-30T12:30:08.959Z,25.60
2019-05-30T12:32:37.456Z,25.65
2019-05-30T12:35:07.825Z,25.63
2019-05-30T12:37:52.952Z,25.56
2019-05-30T12:40:11.329Z,25.47
2019-05-30T12:42:40.094Z,25.42
2019-05-30T12:45:11.868Z,25.38
2019-05-30T12:47:40.490Z,25.39
2019-05-30T12:50:11.006Z,25.34
2019-05-30T12:52:39.516Z,25.28
2019-05-30T12:55:09.079Z,25.26
2019-05-30T12:57:37.835Z,25.27
2019-05-30T13:00:30.344Z,25.30
2019-05-30T13:02:58.923Z,25.30
2019-05-30T13:05:27.431Z,25.26
2019-05-30T13:08:12.071Z,25.20
2019-05-30T13:10:26.223Z,25.16
2019-05-30T13:12:55.549Z,25.11
2019-05-30T13:15:24.214Z,25.07
2019-05-30T13:17:52.734Z,25.07
2019-05-30T13:20:21.298Z,25.08
2019-05-30T13:22:49.775Z,25.12
2019-05-30T13:25:18.787Z,25.16
2019-05-30T13:27:47.368Z,25.17
2019-05-30T13:30:16.390Z,25.21
2019-05-30T13:32:44.924Z,25.22
2019-05-30T13:35:13.602Z,25.26
2019-05-30T13:37:42.088Z,25.24
2019-05-30T13:40:24.218Z,25.24
2019-05-30T13:42:42.233Z,25.30
2019-05-30T13:45:11.651Z,25.39
2019-05-30T13:47:40.630Z,25.50
2019-05-30T13:50:13.372Z,25.61
2019-05-30T13:52:40.757Z,25.65
2019-05-30T13:55:10.240Z,25.66
2019-05-30T13:57:38.993Z,25.60
2019-05-30T14:00:10.634Z,25.53
2019-05-30T14:02:39.367Z,25.49
2019-05-30T14:05:10.558Z,25.38
2019-05-30T14:07:39.250Z,25.33
2019-05-30T14:10:08.722Z,25.29
2019-05-30T14:12:37.411Z,25.28
2019-05-30T14:15:13.539Z,25.28
2019-05-30T14:17:40.042Z,25.25
2019-05-30T14:20:09.162Z,25.18
2019-05-30T14:22:37.698Z,25.12
2019-05-30T14:25:07.551Z,25.09
2019-05-30T14:27:36.124Z,25.10
2019-05-30T14:30:08.999Z,25.12
2019-05-30T14:32:37.808Z,25.14
2019-05-30T14:35:08.475Z,25.14
2019-05-30T14:37:37.106Z,25.10
2019-05-30T14:40:08.797Z,25.07
2019-05-30T14:42:37.401Z,24.98
2019-05-30T14:45:08.400Z,24.81
2019-05-30T14:47:37.089Z,24.64
2019-05-30T14:50:08.925Z,24.50
2019-05-30T14:52:37.492Z,24.40
2019-05-30T14:55:09.584Z,24.35
2019-05-30T14:57:38.154Z,24.30
2019-05-30T15:00:09.324Z,24.22
2019-05-30T15:02:38.265Z,24.16
2019-05-30T15:05:07.494Z,24.08
2019-05-30T15:07:36.127Z,24.00
2019-05-30T15:10:08.521Z,23.90
2019-05-30T15:12:37.395Z,23.81
2019-05-30T15:15:07.930Z,23.70
2019-05-30T15:17:37.176Z,23.56
2019-05-30T15:20:07.503Z,23.41
2019-05-30T15:22:36.059Z,23.26
2019-05-30T15:25:05.803Z,23.10
2019-05-30T15:27:34.893Z,22.94
2019-05-30T15:30:06.366Z,22.80
2019-05-30T15:32:34.958Z,22.65
2019-05-30T15:35:03.510Z,22.55
2019-05-30T15:37:32.072Z,22.44
2019-05-30T15:40:00.633Z,22.36
2019-05-30T15:42:29.149Z,22.27
2019-05-30T15:44:57.656Z,22.18
2019-05-30T15:47:26.196Z,22.10
2019-05-30T15:49:55.860Z,22.04
2019-05-30T15:52:24.699Z,21.99
2019-05-30T15:54:53.228Z,21.97
2019-05-30T15:57:21.685Z,21.93
2019-05-30T15:59:50.168Z,21.89
2019-05-30T16:02:18.693Z,21.85
2019-05-30T16:04:47.182Z,21.82
2019-05-30T16:07:16.706Z,21.76
2019-05-30T16:09:47.315Z,21.70
2019-05-30T16:12:17.352Z,21.66
2019-05-30T16:14:47.199Z,21.61
2019-05-30T16:17:15.849Z,21.54
2019-05-30T16:19:44.310Z,21.51
2019-05-30T16:22:14.090Z,21.47
2019-05-30T16:24:42.941Z,21.43
2019-05-30T16:27:11.477Z,21.40
2019-05-30T16:29:40.035Z,21.40
2019-05-30T16:32:08.676Z,21.35
2019-05-30T16:34:37.238Z,21.32
2019-05-30T16:37:05.723Z,21.32
2019-05-30T16:39:34.254Z,21.31
2019-05-30T16:42:02.924Z,21.30
2019-05-30T16:44:31.423Z,21.30
2019-05-30T16:46:59.934Z,21.31
2019-05-30T16:49:28.415Z,21.31
2019-05-30T16:51:56.892Z,21.28
2019-05-30T16:54:27.504Z,21.26
2019-05-30T16:56:56.171Z,21.21
2019-05-30T16:59:24.645Z,21.18
2019-05-30T17:01:57.682Z,21.11
2019-05-30T17:04:23.563Z,21.08
2019-05-30T17:06:52.036Z,21.05
2019-05-30T17:09:21.598Z,21.01
2019-05-30T17:11:51.607Z,20.99
2019-05-30T17:14:20.129Z,20.98
2019-05-30T17:16:49.318Z,20.97
2019-05-30T17:19:18.407Z,20.95
2019-05-30T17:21:46.988Z,20.93
2019-05-30T17:24:16.837Z,20.92
2019-05-30T17:26:45.596Z,20.91
2019-05-30T17:29:14.104Z,20.90
2019-05-30T17:31:42.651Z,20.74
2019-05-30T17:34:11.200Z,20.91
2019-05-30T17:36:39.676Z,20.89
2019-05-30T17:39:08.890Z,20.89
2019-05-30T17:41:37.392Z,20.90
2019-05-30T17:44:05.970Z,20.91
2019-05-30T17:46:34.702Z,20.95
2019-05-30T17:49:03.187Z,21.00
2019-05-30T17:51:31.680Z,21.05
2019-05-30T17:54:00.214Z,21.08
2019-05-30T17:56:30.286Z,21.11
2019-05-30T17:58:59.032Z,21.12
2019-05-30T18:01:28.436Z,21.13
2019-05-30T18:03:57.063Z,21.10
2019-05-30T18:06:26.575Z,21.07
2019-05-30T18:08:55.354Z,21.05
2019-05-30T18:11:24.869Z,21.02
2019-05-30T18:13:53.611Z,21.00
2019-05-30T18:16:23.745Z,20.99
2019-05-30T18:18:54.477Z,20.93
2019-05-30T18:21:23.720Z,20.89
2019-05-30T18:23:54.234Z,20.85
2019-05-30T18:26:25.437Z,20.80
2019-05-30T18:28:54.012Z,20.76
2019-05-30T18:31:23.823Z,20.72
2019-05-30T18:33:52.523Z,20.69
2019-05-30T18:36:22.236Z,20.65
2019-05-30T18:38:51.645Z,20.62
2019-05-30T18:41:20.131Z,20.61
2019-05-30T18:43:50.313Z,20.57
2019-05-30T18:46:18.862Z,20.55
2019-05-30T18:48:47.592Z,20.53
2019-05-30T18:51:16.075Z,20.50
2019-05-30T18:53:44.631Z,20.48
2019-05-30T18:56:13.569Z,20.47
2019-05-30T18:58:43.945Z,20.44
2019-05-30T19:01:12.487Z,20.41
2019-05-30T19:03:40.975Z,20.39
2019-05-30T19:06:09.500Z,20.37
2019-05-30T19:08:38.025Z,20.35
2019-05-30T19:11:26.360Z,20.33
2019-05-30T19:13:41.190Z,20.30
2019-05-30T19:16:09.736Z,20.27
2019-05-30T19:18:39.730Z,20.27
2019-05-30T19:21:11.216Z,20.27
2019-05-30T19:23:41.366Z,20.24
2019-05-30T19:26:13.966Z,20.22
2019-05-30T19:28:43.546Z,20.20
2019-05-30T19:31:15.885Z,20.17
2019-05-30T19:33:51.447Z,20.15
2019-05-30T19:36:21.131Z,20.14
2019-05-30T19:38:49.608Z,20.12
2019-05-30T19:41:18.093Z,20.11
2019-05-30T19:43:46.650Z,20.10
2019-05-30T19:46:15.135Z,20.08
2019-05-30T19:48:43.667Z,20.09
2019-05-30T19:51:12.186Z,20.07
2019-05-30T19:53:40.661Z,20.05
2019-05-30T19:56:09.138Z,20.03
2019-05-30T19:58:37.742Z,20.01
2019-05-30T20:01:07.556Z,20.00
2019-05-30T20:03:43.592Z,19.99
2019-05-30T20:06:06.458Z,19.98
2019-05-30T20:08:47.904Z,19.97
2019-05-30T20:11:05.150Z,19.92
2019-05-30T20:13:34.945Z,19.91
2019-05-30T20:16:04.348Z,19.89
2019-05-30T20:18:33.557Z,19.89
2019-05-30T20:21:02.123Z,19.88
2019-05-30T20:23:35.927Z,19.88
2019-05-30T20:26:02.634Z,19.86
2019-05-30T20:28:31.098Z,19.86
2019-05-30T20:30:59.669Z,19.84
2019-05-30T20:33:28.165Z,19.82
2019-05-30T20:35:56.761Z,19.79
2019-05-30T20:38:25.235Z,19.78
2019-05-30T20:40:53.716Z,19.76
2019-05-30T20:43:22.594Z,19.75
2019-05-30T20:45:51.102Z,19.74
2019-05-30T20:48:19.750Z,19.73
2019-05-30T20:50:48.346Z,19.72
2019-05-30T20:53:20.311Z,19.72
2019-05-30T20:55:47.036Z,19.73
2019-05-30T20:58:15.540Z,19.71
2019-05-30T21:00:44.092Z,19.71
2019-05-30T21:03:12.917Z,19.69
2019-05-30T21:05:42.029Z,19.69
2019-05-30T21:08:10.559Z,19.66
2019-05-30T21:10:39.263Z,19.64
2019-05-30T21:13:07.821Z,19.62
2019-05-30T21:15:37.532Z,19.59
2019-05-30T21:18:06.348Z,19.58
2019-05-30T21:20:35.854Z,19.56
2019-05-30T21:23:04.674Z,19.54
2019-05-30T21:25:35.770Z,19.52
2019-05-30T21:28:03.380Z,19.50
2019-05-30T21:30:31.875Z,19.48
2019-05-30T21:33:00.366Z,19.47
2019-05-30T21:35:28.994Z,19.45
2019-05-30T21:37:57.450Z,19.44
2019-05-30T21:40:25.914Z,19.43
2019-05-30T21:43:04.730Z,19.42
2019-05-30T21:45:24.690Z,19.40
2019-05-30T21:47:53.202Z,19.36
2019-05-30T21:50:21.711Z,19.33
2019-05-30T21:52:50.184Z,19.31
2019-05-30T21:55:18.740Z,19.27
2019-05-30T21:57:48.153Z,19.23
2019-05-30T22:00:21.025Z,19.21
2019-05-30T22:02:54.362Z,19.19
2019-05-30T22:05:23.879Z,19.18
2019-05-30T22:07:54.894Z,19.18
2019-05-30T22:10:27.907Z,19.19
2019-05-30T22:13:08.988Z,19.19
2019-05-30T22:15:26.597Z,19.21
2019-05-30T22:17:55.102Z,19.22
2019-05-30T22:20:23.587Z,19.21
2019-05-30T22:22:52.259Z,19.19
2019-05-30T22:25:20.796Z,19.20
2019-05-30T22:27:50.459Z,19.19
2019-05-30T22:30:19.225Z,19.17
2019-05-30T22:32:48.685Z,19.16
2019-05-30T22:35:17.304Z,19.15
2019-05-30T22:37:46.795Z,19.15
2019-05-30T22:40:15.645Z,19.13
2019-05-30T22:42:44.192Z,19.12
2019-05-30T22:45:12.661Z,19.14
2019-05-30T22:47:41.184Z,19.12
2019-05-30T22:50:09.737Z,19.09
2019-05-30T22:52:38.225Z,19.07
2019-05-30T22:55:06.819Z,19.02
2019-05-30T22:57:35.310Z,18.97
2019-05-30T23:00:06.391Z,18.91
2019-05-30T23:02:34.888Z,18.86
2019-05-30T23:05:04.305Z,18.81
2019-05-30T23:07:33.813Z,18.76
2019-05-30T23:10:02.397Z,18.72
2019-05-30T23:12:30.890Z,18.69
2019-05-30T23:14:59.350Z,18.66
2019-05-30T23:17:27.877Z,18.63
2019-05-30T23:19:57.745Z,18.58
2019-05-30T23:22:26.251Z,18.57
2019-05-30T23:24:55.525Z,18.57
2019-05-30T23:27:24.424Z,18.56
2019-05-30T23:29:53.957Z,18.57
2019-05-30T23:32:22.620Z,18.58
2019-05-30T23:34:52.175Z,18.57
2019-05-30T23:37:20.756Z,18.58
2019-05-30T23:39:49.306Z,18.56
2019-05-30T23:42:17.749Z,18.55
2019-05-30T23:44:46.228Z,18.55
2019-05-30T23:47:14.781Z,18.55
2019-05-30T23:49:43.234Z,18.55
2019-05-30T23:52:11.725Z,18.55
2019-05-30T23:54:41.010Z,18.56
2019-05-30T23:57:09.497Z,18.55
2019-05-30T23:59:37.963Z,18.54
